Time;durP1;ratioP1;P1;durP2;ratioP2;P2;SDS_P1;SDS_P2;PMS_P1;PMS_P2;Temp;Humidity;BMP_temperature;BMP_pressure;BME280_temperature;BME280_humidity;BME280_pressure;Samples;Min_cycle;Max_cycle;Signal;HPM_P1;HPM_P2
2023/08/16 00:01:29;;;;;;;9.10;4.93;;;;;;;18.70;80.40;101856.19;5021129;28;20041;-67
2023/08/16 00:03:54;;;;;;;6.50;4.50;;;;;;;18.66;80.50;101864.88;5020026;28;20033;-67
2023/08/16 00:06:19;;;;;;;6.78;4.80;;;;;;;18.69;80.65;101861.78;5020715;28;20552;-67
2023/08/16 00:08:45;;;;;;;8.52;5.10;;;;;;;18.64;80.70;101857.00;5019957;28;20091;-67
2023/08/16 00:11:10;;;;;;;7.57;4.75;;;;;;;18.61;80.88;101860.06;5019612;28;20041;-68
2023/08/16 00:13:35;;;;;;;10.73;5.00;;;;;;;18.59;81.32;101859.44;5020833;28;20080;-67
2023/08/16 00:16:01;;;;;;;8.18;5.07;;;;;;;18.56;81.33;101865.22;5020083;28;20030;-67
2023/08/16 00:18:28;;;;;;;8.77;5.28;;;;;;;18.49;81.49;101870.53;5021589;28;20069;-67
2023/08/16 00:20:53;;;;;;;8.40;5.30;;;;;;;18.41;81.51;101862.63;5021026;28;20033;-67
2023/08/16 00:23:18;;;;;;;8.18;5.13;;;;;;;18.38;81.96;101857.63;5021584;28;20036;-67
2023/08/16 00:25:43;;;;;;;8.68;5.38;;;;;;;18.34;82.08;101861.75;5020662;28;20116;-67
2023/08/16 00:28:09;;;;;;;7.28;4.32;;;;;;;18.22;82.29;101866.84;5021603;28;20040;-67
2023/08/16 00:30:34;;;;;;;8.02;4.45;;;;;;;18.07;82.36;101876.03;5021955;28;20507;-67
2023/08/16 00:32:59;;;;;;;7.43;4.57;;;;;;;18.12;82.46;101868.22;5020634;28;20033;-67
2023/08/16 00:35:24;;;;;;;7.78;4.63;;;;;;;18.10;82.83;101865.72;5021392;28;20064;-67
2023/08/16 00:37:50;;;;;;;7.03;4.78;;;;;;;18.09;82.75;101863.22;5022022;28;20111;-67
2023/08/16 00:40:15;;;;;;;7.35;5.03;;;;;;;17.98;82.52;101869.16;5018307;28;20067;-67
2023/08/16 00:42:41;;;;;;;7.28;5.15;;;;;;;17.89;83.42;101880.00;5022251;28;20025;-67
2023/08/16 00:45:06;;;;;;;10.68;5.35;;;;;;;17.89;83.69;101874.63;5018879;28;20025;-67
2023/08/16 00:47:33;;;;;;;8.63;5.03;;;;;;;17.84;83.92;101879.75;5021409;28;20515;-67
2023/08/16 00:49:58;;;;;;;8.52;5.53;;;;;;;17.79;84.02;101873.31;5019432;28;20059;-67
2023/08/16 00:52:24;;;;;;;9.38;5.22;;;;;;;17.70;84.15;101875.31;5021167;28;20033;-67
2023/08/16 00:54:49;;;;;;;9.50;5.00;;;;;;;17.60;84.49;101872.88;5018150;28;20030;-67
2023/08/16 00:57:15;;;;;;;10.07;4.90;;;;;;;17.55;84.67;101879.84;5021359;28;20033;-67
2023/08/16 00:59:41;;;;;;;6.53;4.63;;;;;;;17.49;84.73;101875.25;5020358;28;20072;-67
2023/08/16 01:02:06;;;;;;;9.52;5.45;;;;;;;17.59;85.12;101879.28;5020303;28;20119;-67
2023/08/16 01:04:32;;;;;;;7.30;5.75;;;;;;;17.58;85.19;101877.63;5020701;28;20589;-67
2023/08/16 01:06:57;;;;;;;7.30;5.68;;;;;;;17.63;85.39;101879.72;5021082;28;20040;-67
2023/08/16 01:09:24;;;;;;;7.68;5.65;;;;;;;17.61;85.57;101885.28;5017653;28;20034;-67
2023/08/16 01:11:57;;;;;;;15.55;5.32;;;;;;;17.65;85.50;101889.28;5020987;28;20033;-67
2023/08/16 01:14:38;;;;;;;8.45;5.18;;;;;;;17.50;85.55;101896.53;5017956;28;20264;-67
2023/08/16 01:17:05;;;;;;;7.63;5.30;;;;;;;17.38;85.56;101897.25;5020064;28;20031;-67
2023/08/16 01:19:32;;;;;;;7.32;5.90;;;;;;;17.38;85.99;101906.13;5020087;28;20124;-67
2023/08/16 01:22:14;;;;;;;6.60;5.63;;;;;;;17.41;86.60;101904.91;5019956;28;20040;-67
2023/08/16 01:24:52;;;;;;;8.85;5.43;;;;;;;17.50;86.93;101901.09;5021549;28;20663;-67
2023/08/16 01:27:21;;;;;;;8.88;6.03;;;;;;;17.53;86.97;101900.72;5018048;28;20017;-68
2023/08/16 01:29:47;;;;;;;10.05;6.35;;;;;;;17.59;86.92;101900.75;5020808;28;20040;-67
2023/08/16 01:32:12;;;;;;;9.13;6.47;;;;;;;17.63;87.34;101901.22;5017345;28;20483;-67
2023/08/16 01:34:38;;;;;;;9.13;6.38;;;;;;;17.69;87.02;101905.03;5020410;28;20033;-67
2023/08/16 01:37:03;;;;;;;9.27;7.03;;;;;;;17.68;86.95;101895.31;5018517;28;20029;-67
2023/08/16 01:39:29;;;;;;;11.70;6.53;;;;;;;17.72;86.76;101904.66;5018850;28;20033;-67
2023/08/16 01:41:57;;;;;;;9.48;6.65;;;;;;;17.64;86.92;101906.44;5019175;28;20029;-67
2023/08/16 01:44:24;;;;;;;9.40;6.43;;;;;;;17.59;87.17;101916.06;5018816;28;20068;-67
2023/08/16 01:46:51;;;;;;;9.88;6.97;;;;;;;17.56;87.36;101911.06;5017254;28;20760;-67
2023/08/16 01:49:17;;;;;;;10.32;6.82;;;;;;;17.55;87.40;101920.97;5019292;28;20013;-67
2023/08/16 01:51:42;;;;;;;8.32;6.63;;;;;;;17.58;87.81;101925.13;5020093;28;20024;-67
2023/08/16 01:54:10;;;;;;;9.98;7.00;;;;;;;17.59;87.77;101927.63;5020405;28;20032;-67
2023/08/16 01:56:35;;;;;;;10.00;7.30;;;;;;;17.71;87.86;101914.56;5016942;28;21578;-67
2023/08/16 01:59:00;;;;;;;9.80;7.47;;;;;;;17.73;87.74;101909.00;5015020;28;20040;-67
2023/08/16 02:01:26;;;;;;;11.10;7.82;;;;;;;17.76;87.58;101904.09;5019497;28;20125;-67
2023/08/16 02:03:52;;;;;;;11.40;7.47;;;;;;;17.82;87.18;101903.31;5018248;28;20104;-67
2023/08/16 02:06:18;;;;;;;12.80;7.82;;;;;;;17.81;87.16;101906.19;5019379;28;20447;-67
2023/08/16 02:08:43;;;;;;;12.88;7.82;;;;;;;17.79;87.28;101906.38;5021233;28;20549;-67
2023/08/16 02:11:09;;;;;;;10.88;8.00;;;;;;;17.76;87.06;101914.81;5018981;28;20043;-67
2023/08/16 02:13:34;;;;;;;10.13;7.47;;;;;;;17.74;87.36;101913.34;5019825;28;20524;-67
2023/08/16 02:16:01;;;;;;;11.18;7.60;;;;;;;17.74;87.66;101916.03;5018310;28;20073;-67
2023/08/16 02:18:28;;;;;;;10.38;7.47;;;;;;;17.66;87.40;101916.97;5018553;28;20030;-67
2023/08/16 02:20:53;;;;;;;13.02;8.18;;;;;;;17.57;87.74;101918.94;5017085;28;20033;-68
2023/08/16 02:23:18;;;;;;;10.05;7.93;;;;;;;17.66;87.65;101919.66;5018780;28;20021;-67
2023/08/16 02:25:44;;;;;;;13.75;7.97;;;;;;;17.68;87.79;101906.06;5019934;28;20041;-67
2023/08/16 02:28:09;;;;;;;13.30;8.38;;;;;;;17.75;87.66;101920.41;5019600;28;20132;-67
2023/08/16 02:30:34;;;;;;;10.25;7.97;;;;;;;17.77;87.70;101916.50;5019956;28;20178;-67
2023/08/16 02:32:59;;;;;;;12.15;7.78;;;;;;;17.79;87.95;101911.75;5020053;28;20064;-67
2023/08/16 02:35:25;;;;;;;11.43;8.30;;;;;;;17.81;87.71;101914.25;5016532;28;20042;-67
2023/08/16 02:37:51;;;;;;;12.27;8.40;;;;;;;17.82;87.44;101914.06;5018630;28;20487;-67
2023/08/16 02:40:16;;;;;;;10.85;8.45;;;;;;;17.84;87.13;101921.91;5018197;28;20056;-67
2023/08/16 02:42:42;;;;;;;12.88;7.95;;;;;;;17.88;86.99;101920.50;5020376;28;20045;-67
2023/08/16 02:45:08;;;;;;;13.30;8.32;;;;;;;17.92;86.79;101919.09;5018258;28;20025;-67
2023/08/16 02:47:33;;;;;;;14.18;8.65;;;;;;;17.89;86.68;101908.72;5018057;28;20033;-67
2023/08/16 02:49:58;;;;;;;13.50;8.23;;;;;;;17.89;86.46;101912.25;5018523;28;20111;-67
2023/08/16 02:52:23;;;;;;;11.25;8.02;;;;;;;17.90;86.57;101916.59;5024266;28;20645;-67
2023/08/16 02:54:48;;;;;;;13.52;8.85;;;;;;;17.91;86.25;101920.13;5022087;28;20022;-67
2023/08/16 02:57:16;;;;;;;10.00;7.93;;;;;;;17.92;86.21;101924.47;5022941;28;20036;-67
2023/08/16 02:59:43;;;;;;;11.07;8.00;;;;;;;17.92;85.67;101914.56;5022681;28;20636;-67
2023/08/16 03:02:08;;;;;;;11.07;8.27;;;;;;;17.88;85.82;101910.59;5023557;28;20114;-67
2023/08/16 03:04:39;;;;;;;11.02;8.80;;;;;;;17.91;86.12;101904.00;5022963;28;20547;-67
2023/08/16 03:07:08;;;;;;;12.18;8.15;;;;;;;17.89;86.00;101893.44;5022967;28;20128;-67
2023/08/16 03:09:34;;;;;;;9.43;8.02;;;;;;;17.87;86.08;101903.56;5020748;28;20040;-67
2023/08/16 03:12:00;;;;;;;11.75;8.07;;;;;;;17.86;85.96;101909.13;5022777;28;20021;-67
2023/08/16 03:14:25;;;;;;;11.32;8.05;;;;;;;17.85;86.22;101910.97;5022277;28;20033;-67
2023/08/16 03:16:50;;;;;;;11.93;8.35;;;;;;;17.76;85.79;101906.78;5020526;28;20057;-67
2023/08/16 03:19:16;;;;;;;12.07;8.27;;;;;;;17.75;85.76;101910.47;5019644;28;20022;-67
2023/08/16 03:21:41;;;;;;;10.10;7.85;;;;;;;17.73;85.98;101914.38;5016887;28;20034;-67
2023/08/16 03:24:07;;;;;;;14.82;8.18;;;;;;;17.69;85.97;101911.25;5017991;28;20040;-67
2023/08/16 03:26:32;;;;;;;11.98;7.65;;;;;;;17.68;85.86;101908.75;5016410;28;20045;-67
2023/08/16 03:28:58;;;;;;;10.95;8.80;;;;;;;17.64;85.77;101911.78;5017519;28;20147;-67
2023/08/16 03:31:23;;;;;;;12.18;8.07;;;;;;;17.63;85.91;101915.47;5017910;28;20503;-67
2023/08/16 03:33:48;;;;;;;13.45;8.10;;;;;;;17.60;86.22;101913.19;5017144;28;20368;-67
2023/08/16 03:36:13;;;;;;;11.40;8.25;;;;;;;17.65;86.17;101912.63;5018062;28;20033;-67
2023/08/16 03:38:41;;;;;;;12.02;8.73;;;;;;;17.61;86.37;101917.53;5015548;28;20073;-67
2023/08/16 03:41:07;;;;;;;11.30;8.35;;;;;;;17.62;86.50;101913.81;5022285;28;20032;-67
2023/08/16 03:43:33;;;;;;;11.80;8.23;;;;;;;17.62;86.71;101915.66;5016165;28;20033;-67
2023/08/16 03:45:58;;;;;;;14.07;8.75;;;;;;;17.60;86.58;101918.53;5019022;28;20106;-67
2023/08/16 03:48:23;;;;;;;11.57;8.55;;;;;;;17.63;86.17;101928.06;5017142;28;20034;-67
2023/08/16 03:50:48;;;;;;;9.88;8.38;;;;;;;17.62;86.39;101932.63;5020395;28;20117;-67
2023/08/16 03:53:14;;;;;;;11.93;8.35;;;;;;;17.69;86.25;101937.28;5017689;28;20033;-67
2023/08/16 03:55:39;;;;;;;12.25;8.10;;;;;;;17.64;86.34;101930.59;5018085;28;20152;-66
2023/08/16 03:58:04;;;;;;;11.48;8.10;;;;;;;17.64;86.17;101930.59;5017062;28;20088;-67
2023/08/16 04:00:29;;;;;;;11.15;8.10;;;;;;;17.64;86.16;101927.91;5018187;28;20033;-67
2023/08/16 04:02:55;;;;;;;13.80;8.18;;;;;;;17.64;86.42;101927.91;5014236;28;20033;-67
2023/08/16 04:05:21;;;;;;;11.80;8.02;;;;;;;17.63;86.56;101931.59;5018003;28;20035;-67
2023/08/16 04:07:47;;;;;;;9.05;7.80;;;;;;;17.61;86.57;101930.94;5019068;28;20487;-67
2023/08/16 04:10:12;;;;;;;9.68;7.78;;;;;;;17.60;86.45;101942.72;5015979;28;20037;-67
2023/08/16 04:12:38;;;;;;;12.68;7.95;;;;;;;17.57;86.36;101953.03;5019553;28;20033;-67
2023/08/16 04:15:03;;;;;;;14.35;8.05;;;;;;;17.55;86.45;101953.22;5022408;28;20026;-67
2023/08/16 04:17:29;;;;;;;10.95;7.88;;;;;;;17.52;86.34;101953.59;5016636;28;20033;-67
2023/08/16 04:19:54;;;;;;;12.90;7.85;;;;;;;17.52;86.39;101944.69;5016327;28;20021;-67
2023/08/16 04:22:20;;;;;;;11.90;7.85;;;;;;;17.47;86.02;101945.28;5019760;28;20025;-67
2023/08/16 04:24:45;;;;;;;9.77;7.30;;;;;;;17.44;85.78;101950.19;5022296;28;20014;-67
2023/08/16 04:27:11;;;;;;;9.75;7.97;;;;;;;17.35;85.80;101938.75;5018835;28;20033;-67
2023/08/16 04:29:36;;;;;;;10.23;7.68;;;;;;;17.36;85.80;101947.63;5018688;28;20041;-67
2023/08/16 04:32:01;;;;;;;13.88;8.50;;;;;;;17.35;85.88;101949.47;5017550;28;20099;-67
2023/08/16 04:34:26;;;;;;;10.82;7.35;;;;;;;17.36;86.19;101948.47;5021511;28;20033;-67
2023/08/16 04:36:52;;;;;;;10.38;7.80;;;;;;;17.31;85.90;101950.84;5018643;28;20549;-67
2023/08/16 04:39:18;;;;;;;11.02;7.78;;;;;;;17.27;85.91;101955.75;5020453;28;20024;-67
2023/08/16 04:41:43;;;;;;;11.38;7.88;;;;;;;17.26;86.26;101954.09;5016462;28;20404;-67
2023/08/16 04:44:09;;;;;;;13.32;8.13;;;;;;;17.23;86.10;101948.28;5018487;28;20048;-67
2023/08/16 04:46:34;;;;;;;12.27;8.02;;;;;;;17.23;86.05;101950.97;5020756;28;20065;-67
2023/08/16 04:48:59;;;;;;;10.93;7.78;;;;;;;17.20;85.88;101949.47;5017342;28;20025;-67
2023/08/16 04:51:25;;;;;;;11.60;8.18;;;;;;;17.21;86.02;101950.31;5020276;28;20033;-67
2023/08/16 04:53:50;;;;;;;11.35;8.10;;;;;;;17.17;86.11;101949.84;5019678;28;20037;-67
2023/08/16 04:56:15;;;;;;;12.77;8.52;;;;;;;17.15;86.30;101940.34;5017756;28;20022;-67
2023/08/16 04:58:40;;;;;;;10.60;8.13;;;;;;;17.14;86.48;101944.03;5021934;28;20021;-67
2023/08/16 05:01:06;;;;;;;12.85;8.32;;;;;;;17.12;86.47;101940.72;5016718;28;20068;-67
2023/08/16 05:03:31;;;;;;;11.15;8.43;;;;;;;17.08;86.48;101940.25;5020672;28;20045;-67
2023/08/16 05:06:01;;;;;;;8.95;7.47;;;;;;;17.09;86.92;101949.97;5020249;28;21416;-67
2023/08/16 05:08:27;;;;;;;10.02;7.43;;;;;;;17.10;86.56;101959.69;5019316;28;20041;-67
2023/08/16 05:10:52;;;;;;;13.07;8.43;;;;;;;17.11;86.97;101965.88;5018465;28;20038;-67
2023/08/16 05:13:17;;;;;;;11.75;8.10;;;;;;;17.10;86.95;101969.59;5015040;28;20489;-67
2023/08/16 05:15:44;;;;;;;9.48;8.07;;;;;;;17.03;86.80;101970.31;5018796;28;20040;-67
2023/08/16 05:18:11;;;;;;;10.00;7.95;;;;;;;16.98;86.61;101970.03;5017301;28;20037;-67
2023/08/16 05:20:37;;;;;;;9.98;8.32;;;;;;;16.96;86.85;101972.06;5016659;28;20036;-67
2023/08/16 05:23:03;;;;;;;11.38;7.93;;;;;;;17.00;86.99;101965.31;5020111;28;20037;-67
2023/08/16 05:25:28;;;;;;;9.15;8.00;;;;;;;17.02;87.26;101968.66;5017618;28;20036;-67
2023/08/16 05:27:58;;;;;;;10.38;7.80;;;;;;;17.05;87.14;101975.50;5019911;28;20021;-67
2023/08/16 05:30:23;;;;;;;14.35;8.07;;;;;;;17.04;87.11;101971.97;5019840;28;20033;-67
2023/08/16 05:32:48;;;;;;;11.93;8.02;;;;;;;17.07;87.48;101967.28;5020313;28;20013;-67
2023/08/16 05:35:14;;;;;;;12.38;8.43;;;;;;;17.04;87.30;101977.34;5018308;28;20033;-67
2023/08/16 05:37:39;;;;;;;11.60;8.48;;;;;;;17.05;87.41;101978.16;5019260;28;20049;-67
2023/08/16 05:40:05;;;;;;;12.40;8.70;;;;;;;17.05;87.57;101978.16;5017839;28;20033;-67
2023/08/16 05:42:31;;;;;;;13.45;8.63;;;;;;;17.07;87.49;101991.44;5020975;28;20030;-67
2023/08/16 05:44:56;;;;;;;12.88;7.95;;;;;;;17.12;87.71;101994.41;5019432;28;20534;-67
2023/08/16 05:47:21;;;;;;;18.75;7.93;;;;;;;17.14;87.66;101995.03;5016722;28;20029;-67
2023/08/16 05:49:47;;;;;;;14.40;8.23;;;;;;;17.15;87.55;101994.03;5013684;28;20541;-67
2023/08/16 05:52:12;;;;;;;12.20;8.02;;;;;;;17.20;87.75;101991.59;5015165;28;20117;-67
2023/08/16 05:54:37;;;;;;;11.25;8.50;;;;;;;17.26;87.68;101998.91;5014886;28;20548;-67
2023/08/16 05:57:03;;;;;;;12.07;8.20;;;;;;;17.32;87.76;102011.59;5017818;28;20030;-67
2023/08/16 05:59:28;;;;;;;11.25;8.52;;;;;;;17.38;87.73;102000.13;5015256;28;20735;-67
2023/08/16 06:01:53;;;;;;;9.95;7.93;;;;;;;17.41;87.64;102004.28;5014784;28;20056;-67
2023/08/16 06:04:19;;;;;;;17.10;9.10;;;;;;;17.44;87.89;101999.38;5017825;28;20390;-67
2023/08/16 06:06:44;;;;;;;10.98;8.20;;;;;;;17.48;87.84;102006.03;5015490;28;20038;-67
2023/08/16 06:09:09;;;;;;;14.27;8.20;;;;;;;17.48;87.21;102014.06;5017965;28;20025;-67
2023/08/16 06:11:34;;;;;;;11.35;7.60;;;;;;;17.49;87.30;102017.59;5015114;28;20037;-67
2023/08/16 06:14:00;;;;;;;12.02;8.13;;;;;;;17.50;86.94;102016.56;5015799;28;20041;-67
2023/08/16 06:16:26;;;;;;;12.30;7.65;;;;;;;17.52;86.98;102012.69;5016360;28;20037;-67
2023/08/16 06:18:52;;;;;;;11.02;7.57;;;;;;;17.52;86.76;102004.63;5013716;28;20018;-67
2023/08/16 06:21:17;;;;;;;11.13;8.23;;;;;;;17.52;86.71;102007.31;5015712;28;20032;-67
2023/08/16 06:23:43;;;;;;;12.93;8.02;;;;;;;17.55;86.72;102009.63;5014267;28;20653;-67
2023/08/16 06:26:09;;;;;;;10.65;8.00;;;;;;;17.57;86.83;102010.25;5012802;28;20057;-67
2023/08/16 06:28:34;;;;;;;14.32;9.07;;;;;;;17.58;86.93;102011.91;5013544;28;20035;-67
2023/08/16 06:30:59;;;;;;;13.23;8.50;;;;;;;17.65;86.84;102007.50;5014858;28;20029;-67
2023/08/16 06:33:25;;;;;;;9.48;8.32;;;;;;;17.71;86.62;102003.25;5016637;28;20029;-67
2023/08/16 06:35:52;;;;;;;11.25;7.38;;;;;;;17.75;86.59;102006.38;5018151;28;20061;-67
2023/08/16 06:38:18;;;;;;;12.57;7.57;;;;;;;17.80;86.88;101999.41;5019163;28;20018;-67
2023/08/16 06:40:43;;;;;;;11.20;7.47;;;;;;;17.84;86.63;102003.38;5019871;28;20109;-66
2023/08/16 06:43:09;;;;;;;12.52;8.10;;;;;;;17.85;86.56;102002.34;5012427;28;20120;-67
2023/08/16 06:45:34;;;;;;;13.63;7.20;;;;;;;17.90;86.35;102002.59;5019284;28;20052;-67
2023/08/16 06:47:59;;;;;;;13.27;7.20;;;;;;;17.94;86.59;102006.59;5013440;28;20418;-66
2023/08/16 06:50:26;;;;;;;10.65;6.97;;;;;;;18.00;86.34;102014.94;5016489;28;20065;-67
2023/08/16 06:52:51;;;;;;;10.07;7.10;;;;;;;18.13;86.48;102006.97;5012892;28;20643;-67
2023/08/16 06:55:18;;;;;;;9.10;6.85;;;;;;;18.26;86.50;102012.50;5017157;28;20018;-67
2023/08/16 06:57:43;;;;;;;11.23;6.47;;;;;;;18.35;86.47;102011.34;5020292;28;20020;-67
2023/08/16 07:00:11;;;;;;;11.38;6.80;;;;;;;18.47;86.34;102020.53;5016674;28;20021;-66
2023/08/16 07:02:36;;;;;;;10.25;6.57;;;;;;;18.53;86.13;102021.66;5022806;28;20030;-67
2023/08/16 07:05:01;;;;;;;11.05;6.55;;;;;;;18.58;85.50;102011.13;5021159;28;20023;-67
2023/08/16 07:07:27;;;;;;;10.70;6.05;;;;;;;18.63;84.69;102015.94;5020235;28;20030;-67
2023/08/16 07:09:52;;;;;;;10.98;5.97;;;;;;;18.72;84.92;102010.22;5024685;28;20029;-67
2023/08/16 07:12:17;;;;;;;11.00;6.10;;;;;;;18.75;85.08;102017.06;5019751;28;20049;-67
2023/08/16 07:14:43;;;;;;;12.00;6.22;;;;;;;18.80;84.80;102023.56;5019864;28;20403;-67
2023/08/16 07:17:08;;;;;;;11.10;5.75;;;;;;;18.86;84.28;102021.94;5015681;28;20033;-67
2023/08/16 07:19:33;;;;;;;12.55;6.30;;;;;;;18.92;83.94;102023.84;5018634;28;20053;-67
2023/08/16 07:21:58;;;;;;;11.55;5.43;;;;;;;18.95;83.13;102028.81;5020255;28;20046;-67
2023/08/16 07:24:23;;;;;;;9.95;5.55;;;;;;;19.00;82.65;102033.59;5018890;28;20053;-67
2023/08/16 07:26:49;;;;;;;8.55;5.45;;;;;;;19.10;82.86;102042.19;5023827;28;20399;-67
2023/08/16 07:29:14;;;;;;;9.98;5.43;;;;;;;19.13;82.52;102039.94;5022084;28;20021;-67
2023/08/16 07:31:39;;;;;;;9.27;5.45;;;;;;;19.20;82.29;102037.25;5020760;28;20548;-67
2023/08/16 07:34:05;;;;;;;9.68;5.93;;;;;;;19.27;82.14;102034.59;5021502;28;20054;-65
2023/08/16 07:36:30;;;;;;;9.55;5.65;;;;;;;19.30;81.59;102032.34;5026055;28;20033;-65
2023/08/16 07:38:55;;;;;;;10.52;5.47;;;;;;;19.32;81.02;102037.53;5026662;28;20030;-65
2023/08/16 07:41:20;;;;;;;9.82;5.20;;;;;;;19.34;80.41;102030.91;5025839;28;20022;-65
2023/08/16 07:43:46;;;;;;;9.75;4.82;;;;;;;19.33;79.86;102023.84;5022986;28;20040;-65
2023/08/16 07:46:11;;;;;;;8.20;4.80;;;;;;;19.38;79.50;102025.97;5021797;28;20021;-66
2023/08/16 07:48:36;;;;;;;7.28;4.63;;;;;;;19.41;79.32;102029.09;5016973;28;20018;-65
2023/08/16 07:51:01;;;;;;;8.18;4.40;;;;;;;19.47;79.21;102031.00;5027890;28;20364;-65
2023/08/16 07:53:27;;;;;;;10.25;4.82;;;;;;;19.61;79.57;102037.28;5024171;28;20033;-65
2023/08/16 07:55:52;;;;;;;7.38;4.40;;;;;;;19.64;79.42;102031.50;5021906;28;20030;-65
2023/08/16 07:58:17;;;;;;;9.85;3.97;;;;;;;19.68;78.44;102038.16;5020414;28;20018;-65
2023/08/16 08:00:46;;;;;;;9.23;4.22;;;;;;;19.67;77.47;102035.69;5019928;28;20025;-66
2023/08/16 08:03:11;;;;;;;8.73;4.13;;;;;;;19.68;77.01;102030.09;5028368;28;20033;-65
2023/08/16 08:05:36;;;;;;;6.80;3.63;;;;;;;19.71;76.24;102039.63;5029526;28;20074;-65
2023/08/16 08:08:02;;;;;;;6.25;3.67;;;;;;;19.78;76.51;102043.16;5022628;28;20087;-65
2023/08/16 08:10:30;;;;;;;6.07;3.55;;;;;;;19.87;76.22;102036.56;5024648;28;20036;-65
2023/08/16 08:12:55;;;;;;;6.65;3.10;;;;;;;19.98;76.28;102045.94;5016239;28;20021;-65
2023/08/16 08:15:20;;;;;;;8.98;3.40;;;;;;;20.04;75.87;102054.03;5027578;28;20052;-66
2023/08/16 08:17:47;;;;;;;9.38;3.28;;;;;;;20.11;75.27;102048.66;5021383;28;20029;-65
2023/08/16 08:20:14;;;;;;;5.95;2.80;;;;;;;20.17;74.34;102049.69;5019426;28;20760;-66
2023/08/16 08:22:39;;;;;;;8.80;3.20;;;;;;;20.23;73.78;102046.19;5023747;28;20026;-65
2023/08/16 08:25:05;;;;;;;5.50;2.60;;;;;;;20.36;74.19;102047.03;5025428;28;20035;-65
2023/08/16 08:27:31;;;;;;;5.32;2.45;;;;;;;20.45;73.59;102049.56;5029704;28;20115;-65
2023/08/16 08:29:56;;;;;;;6.72;2.63;;;;;;;20.51;72.94;102049.56;5017663;28;20156;-65
2023/08/16 08:32:21;;;;;;;6.88;2.72;;;;;;;20.54;72.45;102051.88;5028097;28;20482;-65
2023/08/16 08:34:47;;;;;;;5.50;2.55;;;;;;;20.62;72.22;102057.06;5024890;28;20025;-65
2023/08/16 08:37:12;;;;;;;9.35;2.90;;;;;;;20.69;72.47;102060.59;5022227;28;20044;-65
2023/08/16 08:39:37;;;;;;;7.38;2.80;;;;;;;20.78;72.13;102060.38;5015033;28;20022;-65
2023/08/16 08:42:04;;;;;;;3.88;2.50;;;;;;;20.83;72.11;102061.44;5023542;28;20036;-65
2023/08/16 08:44:30;;;;;;;5.93;2.42;;;;;;;20.80;71.47;102052.88;5024247;28;20026;-65
2023/08/16 08:46:56;;;;;;;7.38;3.00;;;;;;;20.85;70.50;102055.81;5021575;28;20030;-65
2023/08/16 08:49:22;;;;;;;8.52;2.53;;;;;;;20.88;70.96;102056.22;5018118;28;20025;-65
2023/08/16 08:51:47;;;;;;;6.88;2.72;;;;;;;20.96;70.55;102057.88;5020131;28;20014;-65
2023/08/16 08:54:12;;;;;;;7.05;2.40;;;;;;;21.01;70.29;102061.59;5022257;28;20018;-65
2023/08/16 08:56:40;;;;;;;4.82;2.50;;;;;;;21.04;69.96;102065.75;5020095;28;20030;-65
2023/08/16 08:59:06;;;;;;;5.25;2.90;;;;;;;21.13;69.81;102063.69;5018984;28;20108;-65
2023/08/16 09:01:32;;;;;;;6.10;2.65;;;;;;;21.20;69.93;102062.63;5018601;28;20034;-65
2023/08/16 09:04:03;;;;;;;7.32;2.85;;;;;;;21.28;69.62;102067.81;5032615;28;20493;-65
2023/08/16 09:06:28;;;;;;;7.00;3.13;;;;;;;21.33;69.17;102070.72;5015314;28;20183;-65
2023/08/16 09:08:56;;;;;;;7.93;3.30;;;;;;;21.42;68.87;102070.50;5029696;28;20545;-65
2023/08/16 09:11:22;;;;;;;7.60;2.60;;;;;;;21.48;69.14;102056.13;5021655;28;20662;-66
2023/08/16 09:13:47;;;;;;;7.28;2.92;;;;;;;21.50;69.02;102054.88;5026779;28;20025;-65
2023/08/16 09:16:13;;;;;;;7.78;2.70;;;;;;;21.51;68.19;102061.09;5024590;28;20033;-65
2023/08/16 09:18:47;;;;;;;6.25;3.10;;;;;;;21.56;67.94;102070.25;5023307;28;20471;-65
2023/08/16 09:21:16;;;;;;;6.18;2.53;;;;;;;21.58;68.11;102067.31;5026369;28;20032;-65
2023/08/16 09:23:41;;;;;;;;;;;;;;;21.72;68.26;102063.53;5023827;28;20067;-65
2023/08/16 09:26:13;;;;;;;4.40;2.53;;;;;;;21.67;67.82;102068.72;5022717;28;19948;-65
2023/08/16 09:28:39;;;;;;;7.38;2.75;;;;;;;21.72;67.50;102060.00;5019017;28;20824;-66
2023/08/16 09:31:06;;;;;;;10.45;2.95;;;;;;;21.86;67.95;102065.13;5021397;28;20029;-65
2023/08/16 09:33:34;;;;;;;5.97;2.35;;;;;;;21.99;67.57;102069.66;5025641;28;20039;-65
2023/08/16 09:35:59;;;;;;;5.30;2.50;;;;;;;22.06;67.10;102064.22;5022023;28;20139;-65
2023/08/16 09:38:25;;;;;;;9.50;3.00;;;;;;;22.11;66.36;102067.94;5014515;28;20065;-65
2023/08/16 09:40:51;;;;;;;7.53;2.65;;;;;;;22.21;66.50;102062.03;5022524;28;20040;-65
2023/08/16 09:43:20;;;;;;;6.75;2.90;;;;;;;22.25;65.99;102068.66;5015858;28;20029;-65
2023/08/16 09:45:50;;;;;;;4.38;2.38;;;;;;;22.36;66.09;102073.41;5022832;28;20117;-65
2023/08/16 09:48:15;;;;;;;6.82;2.50;;;;;;;22.38;65.87;102068.59;5018965;28;20029;-65
2023/08/16 09:50:41;;;;;;;5.47;2.40;;;;;;;22.47;66.15;102064.56;5026374;28;20044;-65
2023/08/16 09:53:06;;;;;;;7.47;2.50;;;;;;;22.52;66.10;102072.84;5024042;28;20025;-65
2023/08/16 09:55:33;;;;;;;5.93;2.25;;;;;;;22.59;66.26;102066.59;5021294;28;20026;-65
2023/08/16 09:57:59;;;;;;;5.88;2.60;;;;;;;22.59;66.17;102066.59;5025910;28;20032;-65
2023/08/16 10:00:30;;;;;;;5.35;2.60;;;;;;;22.53;64.96;102066.38;5023705;28;20037;-65
2023/08/16 10:02:56;;;;;;;6.90;3.20;;;;;;;22.48;64.64;102070.81;5022915;28;20030;-65
2023/08/16 10:05:21;;;;;;;6.32;2.90;;;;;;;22.48;64.82;102070.81;5025368;28;20047;-65
2023/08/16 10:07:48;;;;;;;8.40;2.67;;;;;;;22.43;64.48;102068.75;5026224;28;20399;-65
2023/08/16 10:10:14;;;;;;;7.63;2.53;;;;;;;22.40;64.17;102061.09;5016517;28;20034;-65
2023/08/16 10:12:40;;;;;;;7.75;2.70;;;;;;;22.32;63.94;102064.06;5022535;28;20026;-65
2023/08/16 10:15:06;;;;;;;7.03;2.40;;;;;;;22.31;64.26;102061.59;5027788;28;20057;-65
2023/08/16 10:17:35;;;;;;;6.53;2.50;;;;;;;22.32;64.36;102065.94;5026801;28;20441;-65
2023/08/16 10:20:04;;;;;;;6.88;2.60;;;;;;;22.38;64.57;102062.34;5026603;28;20026;-66
2023/08/16 10:22:38;;;;;;;8.70;2.88;;;;;;;22.40;65.22;102050.25;5026132;28;20029;-65
2023/08/16 10:25:12;;;;;;;7.13;2.35;;;;;;;22.53;65.65;102054.72;5027534;28;20096;-65
2023/08/16 10:27:38;;;;;;;5.10;2.05;;;;;;;22.55;64.92;102050.78;5019887;28;20668;-65
2023/08/16 10:30:09;;;;;;;4.90;2.40;;;;;;;22.63;63.98;102056.97;5020183;28;20022;-66
2023/08/16 10:32:38;;;;;;;7.32;2.60;;;;;;;22.68;63.56;102055.25;5022048;28;20034;-65
2023/08/16 10:35:05;;;;;;;8.57;3.03;;;;;;;22.76;63.86;102049.53;5027052;28;20021;-65
2023/08/16 10:37:31;;;;;;;3.38;2.08;;;;;;;22.84;64.03;102056.59;5016574;28;20029;-65
2023/08/16 10:39:56;;;;;;;6.85;2.50;;;;;;;22.85;63.87;102056.38;5014776;28;20025;-66
2023/08/16 10:42:26;;;;;;;6.88;2.60;;;;;;;22.89;63.40;102059.47;5011957;28;20034;-66
2023/08/16 10:44:51;;;;;;;5.38;2.30;;;;;;;22.99;63.13;102064.38;5010219;28;20108;-66
2023/08/16 10:47:30;;;;;;;6.07;2.60;;;;;;;23.02;63.08;102061.22;5013706;28;20101;-66
2023/08/16 10:49:55;;;;;;;8.18;2.65;;;;;;;22.96;62.76;102062.94;5009331;28;20810;-66
2023/08/16 10:52:30;;;;;;;6.03;2.58;;;;;;;23.00;62.93;102061.44;5012727;28;20045;-66
2023/08/16 10:54:55;;;;;;;6.38;2.70;;;;;;;23.03;62.41;102052.03;5014534;28;20111;-66
2023/08/16 10:57:25;;;;;;;8.18;2.60;;;;;;;23.11;62.42;102049.84;5014543;28;20088;-66
2023/08/16 11:00:07;;;;;;;7.55;3.10;;;;;;;23.18;62.03;102047.09;5013190;28;20436;-66
2023/08/16 11:02:35;;;;;;;7.22;2.90;;;;;;;23.28;62.87;102046.56;5013605;28;20033;-65
2023/08/16 11:05:00;;;;;;;6.78;2.80;;;;;;;23.38;63.10;102044.16;5030082;28;20104;-66
2023/08/16 11:07:28;;;;;;;4.93;2.65;;;;;;;23.46;62.87;102043.88;5025325;28;20125;-69
2023/08/16 11:09:58;;;;;;;7.95;2.92;;;;;;;23.50;62.64;102050.50;5011925;28;20030;-66
2023/08/16 11:12:31;;;;;;;6.85;2.90;;;;;;;23.48;62.02;102053.44;5011910;28;20422;-66
2023/08/16 11:14:57;;;;;;;8.63;3.28;;;;;;;23.55;61.98;102056.06;5014523;28;20031;-66
2023/08/16 11:17:26;;;;;;;6.72;3.40;;;;;;;23.56;62.56;102051.50;5015894;28;20033;-66